sensor_id;sensor_type;location;lat;lon;timestamp;pressure;altitude;pressure_sealevel;temperature;humidity
9695;BME280;4690;52.422;13.486;2024-03-02T00:10:21;100316.16;;;9.56;92.83
9695;BME280;4690;52.422;13.486;2024-03-02T00:12:51;100319.50;;;9.58;92.78
9695;BME280;4690;52.422;13.486;2024-03-02T00:15:39;100320.13;;;9.60;92.78
9695;BME280;4690;52.422;13.486;2024-03-02T00:18:11;100314.19;;;9.63;93.04
9695;BME280;4690;52.422;13.486;2024-03-02T00:20:39;100308.72;;;9.63;92.56
9695;BME280;4690;52.422;13.486;2024-03-02T00:23:08;100306.81;;;9.64;93.12
9695;BME280;4690;52.422;13.486;2024-03-02T00:25:42;100303.00;;;9.65;92.49
9695;BME280;4690;52.422;13.486;2024-03-02T00:28:21;100306.81;;;9.64;92.90
9695;BME280;4690;52.422;13.486;2024-03-02T00:31:11;100305.16;;;9.63;92.86
9695;BME280;4690;52.422;13.486;2024-03-02T00:33:44;100302.16;;;9.64;93.21
9695;BME280;4690;52.422;13.486;2024-03-02T00:36:13;100306.34;;;9.67;92.88
9695;BME280;4690;52.422;13.486;2024-03-02T00:38:51;100297.31;;;9.67;92.89
9695;BME280;4690;52.422;13.486;2024-03-02T00:41:24;100304.69;;;9.66;93.19
9695;BME280;4690;52.422;13.486;2024-03-02T00:46:29;100302.31;;;9.70;92.87
9695;BME280;4690;52.422;13.486;2024-03-02T00:49:00;100297.91;;;9.69;93.24
9695;BME280;4690;52.422;13.486;2024-03-02T00:51:30;100309.69;;;9.69;93.18
9695;BME280;4690;52.422;13.486;2024-03-02T00:54:00;100298.97;;;9.68;93.09
9695;BME280;4690;52.422;13.486;2024-03-02T00:56:26;100309.69;;;9.69;93.37
9695;BME280;4690;52.422;13.486;2024-03-02T00:58:53;100300.41;;;9.70;93.15
9695;BME280;4690;52.422;13.486;2024-03-02T01:01:19;100305.88;;;9.70;92.94
9695;BME280;4690;52.422;13.486;2024-03-02T01:03:45;100295.75;;;9.71;92.75
9695;BME280;4690;52.422;13.486;2024-03-02T01:06:11;100293.84;;;9.71;92.73
9695;BME280;4690;52.422;13.486;2024-03-02T01:08:38;100291.72;;;9.73;92.85
9695;BME280;4690;52.422;13.486;2024-03-02T01:11:04;100293.63;;;9.73;93.26
9695;BME280;4690;52.422;13.486;2024-03-02T01:13:31;100296.97;;;9.75;93.33
9695;BME280;4690;52.422;13.486;2024-03-02T01:15:57;100296.97;;;9.75;93.54
9695;BME280;4690;52.422;13.486;2024-03-02T01:18:24;100296.16;;;9.74;93.02
9695;BME280;4690;52.422;13.486;2024-03-02T01:20:50;100284.13;;;9.75;93.33
9695;BME280;4690;52.422;13.486;2024-03-02T01:23:22;100289.59;;;9.75;93.50
9695;BME280;4690;52.422;13.486;2024-03-02T01:25:48;100286.03;;;9.75;93.66
9695;BME280;4690;52.422;13.486;2024-03-02T01:28:15;100287.53;;;9.71;93.81
9695;BME280;4690;52.422;13.486;2024-03-02T01:30:41;100283.50;;;9.73;94.43
9695;BME280;4690;52.422;13.486;2024-03-02T01:33:07;100284.34;;;9.74;94.68
9695;BME280;4690;52.422;13.486;2024-03-02T01:35:33;100274.00;;;9.76;94.51
9695;BME280;4690;52.422;13.486;2024-03-02T01:38:00;100275.44;;;9.78;94.49
9695;BME280;4690;52.422;13.486;2024-03-02T01:40:27;100266.16;;;9.79;94.86
9695;BME280;4690;52.422;13.486;2024-03-02T01:42:54;100264.28;;;9.80;94.77
9695;BME280;4690;52.422;13.486;2024-03-02T01:45:21;100270.34;;;9.82;94.97
9695;BME280;4690;52.422;13.486;2024-03-02T01:47:47;100261.06;;;9.83;95.21
9695;BME280;4690;52.422;13.486;2024-03-02T01:50:13;100255.59;;;9.83;94.60
9695;BME280;4690;52.422;13.486;2024-03-02T01:52:40;100264.38;;;9.85;94.84
9695;BME280;4690;52.422;13.486;2024-03-02T01:55:07;100262.25;;;9.87;94.71
9695;BME280;4690;52.422;13.486;2024-03-02T01:57:34;100256.56;;;9.88;95.28
9695;BME280;4690;52.422;13.486;2024-03-02T02:00:00;100252.16;;;9.87;95.06
9695;BME280;4690;52.422;13.486;2024-03-02T02:02:26;100251.31;;;9.87;95.17
9695;BME280;4690;52.422;13.486;2024-03-02T02:04:52;100245.63;;;9.88;95.34
9695;BME280;4690;52.422;13.486;2024-03-02T02:07:18;100249.66;;;9.86;95.14
9695;BME280;4690;52.422;13.486;2024-03-02T02:09:44;100255.34;;;9.84;95.02
9695;BME280;4690;52.422;13.486;2024-03-02T02:12:10;100250.34;;;9.81;95.39
9695;BME280;4690;52.422;13.486;2024-03-02T02:14:36;100243.78;;;9.82;95.37
9695;BME280;4690;52.422;13.486;2024-03-02T02:17:02;100241.91;;;9.83;95.93
9695;BME280;4690;52.422;13.486;2024-03-02T02:19:28;100241.44;;;9.86;95.75
9695;BME280;4690;52.422;13.486;2024-03-02T02:21:55;100241.44;;;9.86;95.98
9695;BME280;4690;52.422;13.486;2024-03-02T02:24:21;100248.34;;;9.88;96.12
9695;BME280;4690;52.422;13.486;2024-03-02T02:26:46;100236.31;;;9.90;95.81
9695;BME280;4690;52.422;13.486;2024-03-02T02:29:12;100246.81;;;9.93;95.74
9695;BME280;4690;52.422;13.486;2024-03-02T02:31:39;100243.84;;;9.94;96.28
9695;BME280;4690;52.422;13.486;2024-03-02T02:34:06;100237.28;;;9.95;96.16
9695;BME280;4690;52.422;13.486;2024-03-02T02:36:39;100242.53;;;9.97;96.35
9695;BME280;4690;52.422;13.486;2024-03-02T02:39:09;100248.38;;;10.00;98.34
9695;BME280;4690;52.422;13.486;2024-03-02T02:41:36;100240.16;;;10.00;98.34
9695;BME280;4690;52.422;13.486;2024-03-02T02:44:02;100252.41;;;9.98;99.12
9695;BME280;4690;52.422;13.486;2024-03-02T02:46:27;100245.63;;;10.00;100.00
9695;BME280;4690;52.422;13.486;2024-03-02T02:48:53;100244.31;;;9.91;100.00
9695;BME280;4690;52.422;13.486;2024-03-02T02:51:19;100243.59;;;9.96;100.00
9695;BME280;4690;52.422;13.486;2024-03-02T02:53:45;100247.75;;;9.98;100.00
9695;BME280;4690;52.422;13.486;2024-03-02T02:56:10;100249.56;;;10.04;100.00
9695;BME280;4690;52.422;13.486;2024-03-02T02:58:36;100250.53;;;10.10;100.00
9695;BME280;4690;52.422;13.486;2024-03-02T03:01:02;100246.59;;;10.06;100.00
9695;BME280;4690;52.422;13.486;2024-03-02T03:03:28;100250.63;;;10.03;100.00
9695;BME280;4690;52.422;13.486;2024-03-02T03:05:53;100253.59;;;10.02;100.00
9695;BME280;4690;52.422;13.486;2024-03-02T03:08:19;100249.81;;;10.03;100.00
9695;BME280;4690;52.422;13.486;2024-03-02T03:10:45;100242.66;;;10.02;100.00
9695;BME280;4690;52.422;13.486;2024-03-02T03:13:11;100243.50;;;10.02;100.00
9695;BME280;4690;52.422;13.486;2024-03-02T03:15:37;100243.84;;;10.06;100.00
9695;BME280;4690;52.422;13.486;2024-03-02T03:18:04;100240.41;;;10.10;100.00
9695;BME280;4690;52.422;13.486;2024-03-02T03:20:30;100243.75;;;10.13;100.00
9695;BME280;4690;52.422;13.486;2024-03-02T03:22:57;100246.00;;;10.16;100.00
9695;BME280;4690;52.422;13.486;2024-03-02T03:25:23;100242.69;;;10.25;100.00
9695;BME280;4690;52.422;13.486;2024-03-02T03:27:49;100240.47;;;10.34;100.00
9695;BME280;4690;52.422;13.486;2024-03-02T03:30:15;100240.22;;;10.36;100.00
9695;BME280;4690;52.422;13.486;2024-03-02T03:32:40;100238.69;;;10.40;100.00
9695;BME280;4690;52.422;13.486;2024-03-02T03:35:07;100241.28;;;10.46;100.00
9695;BME280;4690;52.422;13.486;2024-03-02T03:37:33;100239.16;;;10.48;100.00
9695;BME280;4690;52.422;13.486;2024-03-02T03:40:00;100237.84;;;10.51;100.00
9695;BME280;4690;52.422;13.486;2024-03-02T03:42:26;100248.19;;;10.49;100.00
9695;BME280;4690;52.422;13.486;2024-03-02T03:44:53;100246.53;;;10.48;100.00
9695;BME280;4690;52.422;13.486;2024-03-02T03:47:19;100244.63;;;10.48;100.00
9695;BME280;4690;52.422;13.486;2024-03-02T03:49:46;100247.38;;;10.48;100.00
9695;BME280;4690;52.422;13.486;2024-03-02T03:52:11;100242.97;;;10.47;100.00
9695;BME280;4690;52.422;13.486;2024-03-02T03:54:37;100250.72;;;10.50;100.00
9695;BME280;4690;52.422;13.486;2024-03-02T03:57:04;100251.75;;;10.49;100.00
9695;BME280;4690;52.422;13.486;2024-03-02T03:59:30;100249.16;;;10.54;100.00
9695;BME280;4690;52.422;13.486;2024-03-02T04:01:56;100259.03;;;10.55;100.00
9695;BME280;4690;52.422;13.486;2024-03-02T04:04:22;100252.59;;;10.50;100.00
9695;BME280;4690;52.422;13.486;2024-03-02T04:06:48;100253.31;;;10.45;100.00
9695;BME280;4690;52.422;13.486;2024-03-02T04:09:13;100252.25;;;10.46;100.00
9695;BME280;4690;52.422;13.486;2024-03-02T04:11:39;100257.97;;;10.57;100.00
9695;BME280;4690;52.422;13.486;2024-03-02T04:14:05;100260.44;;;10.58;100.00
9695;BME280;4690;52.422;13.486;2024-03-02T04:16:31;100255.47;;;10.43;100.00
9695;BME280;4690;52.422;13.486;2024-03-02T04:18:57;100259.28;;;10.42;100.00
9695;BME280;4690;52.422;13.486;2024-03-02T04:21:23;100248.44;;;10.47;100.00
9695;BME280;4690;52.422;13.486;2024-03-02T04:23:49;100255.34;;;10.50;100.00
9695;BME280;4690;52.422;13.486;2024-03-02T04:26:14;100245.59;;;10.54;100.00
9695;BME280;4690;52.422;13.486;2024-03-02T04:28:45;100250.81;;;10.55;100.00
9695;BME280;4690;52.422;13.486;2024-03-02T04:31:10;100242.09;;;10.59;100.00
9695;BME280;4690;52.422;13.486;2024-03-02T04:33:36;100252.00;;;10.60;100.00
9695;BME280;4690;52.422;13.486;2024-03-02T04:36:02;100265.22;;;10.63;100.00
9695;BME280;4690;52.422;13.486;2024-03-02T04:38:28;100266.06;;;10.63;100.00
9695;BME280;4690;52.422;13.486;2024-03-02T04:40:54;100263.31;;;10.63;100.00
9695;BME280;4690;52.422;13.486;2024-03-02T04:43:20;100266.66;;;10.65;100.00
9695;BME280;4690;52.422;13.486;2024-03-02T04:45:46;100274.63;;;10.67;100.00
9695;BME280;4690;52.422;13.486;2024-03-02T04:48:11;100272.13;;;10.65;100.00
9695;BME280;4690;52.422;13.486;2024-03-02T04:50:38;100287.28;;;10.68;100.00
9695;BME280;4690;52.422;13.486;2024-03-02T04:53:04;100277.63;;;10.65;100.00
9695;BME280;4690;52.422;13.486;2024-03-02T04:55:29;100281.19;;;10.66;100.00
9695;BME280;4690;52.422;13.486;2024-03-02T04:58:21;100279.88;;;10.68;100.00
9695;BME280;4690;52.422;13.486;2024-03-02T05:00:46;100287.00;;;10.69;100.00
9695;BME280;4690;52.422;13.486;2024-03-02T05:03:12;100287.28;;;10.68;100.00
9695;BME280;4690;52.422;13.486;2024-03-02T05:05:39;100294.53;;;10.62;100.00
9695;BME280;4690;52.422;13.486;2024-03-02T05:08:05;100299.19;;;10.62;100.00
9695;BME280;4690;52.422;13.486;2024-03-02T05:10:31;100300.50;;;10.59;100.00
9695;BME280;4690;52.422;13.486;2024-03-02T05:12:57;100312.63;;;10.51;100.00
9695;BME280;4690;52.422;13.486;2024-03-02T05:15:24;100314.53;;;10.39;100.00
9695;BME280;4690;52.422;13.486;2024-03-02T05:17:51;100316.50;;;10.20;100.00
9695;BME280;4690;52.422;13.486;2024-03-02T05:20:17;100314.38;;;10.22;100.00
9695;BME280;4690;52.422;13.486;2024-03-02T05:22:43;100317.78;;;10.18;100.00
9695;BME280;4690;52.422;13.486;2024-03-02T05:25:09;100312.09;;;10.19;100.00
9695;BME280;4690;52.422;13.486;2024-03-02T05:27:37;100315.38;;;10.28;100.00
9695;BME280;4690;52.422;13.486;2024-03-02T05:30:04;100311.91;;;10.32;100.00
9695;BME280;4690;52.422;13.486;2024-03-02T05:32:32;100316.13;;;10.17;100.00
9695;BME280;4690;52.422;13.486;2024-03-02T05:34:58;100318.16;;;10.21;100.00
9695;BME280;4690;52.422;13.486;2024-03-02T05:37:23;100323.75;;;10.26;100.00
9695;BME280;4690;52.422;13.486;2024-03-02T05:39:49;100326.38;;;10.21;100.00
9695;BME280;4690;52.422;13.486;2024-03-02T05:42:15;100336.22;;;10.10;100.00
9695;BME280;4690;52.422;13.486;2024-03-02T05:44:42;100330.88;;;10.16;100.00
9695;BME280;4690;52.422;13.486;2024-03-02T05:47:08;100336.69;;;10.07;100.00
9695;BME280;4690;52.422;13.486;2024-03-02T05:49:35;100340.66;;;10.12;100.00
9695;BME280;4690;52.422;13.486;2024-03-02T05:52:00;100333.88;;;10.14;100.00
9695;BME280;4690;52.422;13.486;2024-03-02T05:54:26;100349.66;;;10.00;100.00
9695;BME280;4690;52.422;13.486;2024-03-02T05:56:52;100343.72;;;10.03;100.00
9695;BME280;4690;52.422;13.486;2024-03-02T05:59:18;100342.13;;;9.96;100.00
9695;BME280;4690;52.422;13.486;2024-03-02T06:01:45;100330.34;;;9.95;100.00
9695;BME280;4690;52.422;13.486;2024-03-02T06:04:16;100336.81;;;10.01;100.00
9695;BME280;4690;52.422;13.486;2024-03-02T06:06:42;100344.78;;;10.02;100.00
9695;BME280;4690;52.422;13.486;2024-03-02T06:09:09;100349.84;;;9.87;100.00
9695;BME280;4690;52.422;13.486;2024-03-02T06:11:39;100340.22;;;9.96;100.00
9695;BME280;4690;52.422;13.486;2024-03-02T06:14:08;100336.22;;;10.10;100.00
9695;BME280;4690;52.422;13.486;2024-03-02T06:16:34;100343.53;;;10.17;100.00
9695;BME280;4690;52.422;13.486;2024-03-02T06:19:01;100342.91;;;10.15;100.00
9695;BME280;4690;52.422;13.486;2024-03-02T06:21:27;100345.41;;;10.16;100.00
9695;BME280;4690;52.422;13.486;2024-03-02T06:23:53;100342.78;;;10.09;100.00
9695;BME280;4690;52.422;13.486;2024-03-02T06:26:20;100347.78;;;10.13;100.00
9695;BME280;4690;52.422;13.486;2024-03-02T06:28:46;100350.03;;;10.16;100.00
9695;BME280;4690;52.422;13.486;2024-03-02T06:31:12;100355.78;;;10.14;100.00
9695;BME280;4690;52.422;13.486;2024-03-02T06:33:38;100345.66;;;10.15;100.00
9695;BME280;4690;52.422;13.486;2024-03-02T06:36:04;100348.75;;;10.18;100.00
9695;BME280;4690;52.422;13.486;2024-03-02T06:38:30;100355.31;;;10.17;100.00
9695;BME280;4690;52.422;13.486;2024-03-02T06:40:58;100357.28;;;10.28;100.00
9695;BME280;4690;52.422;13.486;2024-03-02T06:43:24;100360.84;;;10.29;100.00
9695;BME280;4690;52.422;13.486;2024-03-02T06:45:51;100370.91;;;10.17;100.00
9695;BME280;4690;52.422;13.486;2024-03-02T06:48:20;100364.72;;;10.21;100.00
9695;BME280;4690;52.422;13.486;2024-03-02T06:50:47;100359.22;;;10.21;100.00
9695;BME280;4690;52.422;13.486;2024-03-02T06:53:13;100371.78;;;10.29;100.00
9695;BME280;4690;52.422;13.486;2024-03-02T06:55:39;100371.47;;;10.37;100.00
9695;BME280;4690;52.422;13.486;2024-03-02T06:58:05;100367.28;;;10.35;100.00
9695;BME280;4690;52.422;13.486;2024-03-02T07:00:31;100364.31;;;10.36;100.00
9695;BME280;4690;52.422;13.486;2024-03-02T07:02:57;100376.47;;;10.40;100.00
9695;BME280;4690;52.422;13.486;2024-03-02T07:05:23;100368.03;;;10.42;100.00
9695;BME280;4690;52.422;13.486;2024-03-02T07:07:49;100367.91;;;10.18;100.00
9695;BME280;4690;52.422;13.486;2024-03-02T07:10:15;100371.94;;;10.16;100.00
9695;BME280;4690;52.422;13.486;2024-03-02T07:12:41;100377.50;;;10.27;100.00
9695;BME280;4690;52.422;13.486;2024-03-02T07:15:07;100372.41;;;10.31;100.00
9695;BME280;4690;52.422;13.486;2024-03-02T07:17:33;100379.19;;;10.28;100.00
9695;BME280;4690;52.422;13.486;2024-03-02T07:19:59;100388.97;;;10.36;100.00
9695;BME280;4690;52.422;13.486;2024-03-02T07:22:25;100385.88;;;10.44;100.00
9695;BME280;4690;52.422;13.486;2024-03-02T07:24:51;100390.50;;;10.44;100.00
9695;BME280;4690;52.422;13.486;2024-03-02T07:27:17;100381.34;;;10.50;100.00
9695;BME280;4690;52.422;13.486;2024-03-02T07:29:43;100390.78;;;10.54;100.00
9695;BME280;4690;52.422;13.486;2024-03-02T07:32:10;100401.34;;;10.39;100.00
9695;BME280;4690;52.422;13.486;2024-03-02T07:34:36;100402.19;;;10.39;100.00
9695;BME280;4690;52.422;13.486;2024-03-02T07:37:03;100409.84;;;10.49;100.00
9695;BME280;4690;52.422;13.486;2024-03-02T07:39:30;100412.94;;;10.52;100.00
9695;BME280;4690;52.422;13.486;2024-03-02T07:41:56;100419.34;;;10.46;100.00
9695;BME280;4690;52.422;13.486;2024-03-02T07:44:22;100421.88;;;10.48;100.00
9695;BME280;4690;52.422;13.486;2024-03-02T07:46:48;100429.94;;;10.43;100.00
9695;BME280;4690;52.422;13.486;2024-03-02T07:49:20;100433.03;;;10.46;100.00
9695;BME280;4690;52.422;13.486;2024-03-02T07:51:46;100436.41;;;10.48;100.00
9695;BME280;4690;52.422;13.486;2024-03-02T07:54:12;100432.34;;;10.51;100.00
9695;BME280;4690;52.422;13.486;2024-03-02T07:56:38;100435.31;;;10.49;100.00
9695;BME280;4690;52.422;13.486;2024-03-02T07:59:04;100435.44;;;10.43;100.00
9695;BME280;4690;52.422;13.486;2024-03-02T08:01:32;100435.44;;;10.54;100.00
9695;BME280;4690;52.422;13.486;2024-03-02T08:03:59;100433.81;;;10.65;100.00
9695;BME280;4690;52.422;13.486;2024-03-02T08:06:27;100441.69;;;10.73;100.00
9695;BME280;4690;52.422;13.486;2024-03-02T08:09:02;100443.13;;;10.76;100.00
9695;BME280;4690;52.422;13.486;2024-03-02T08:11:33;100444.31;;;10.80;100.00
9695;BME280;4690;52.422;13.486;2024-03-02T08:14:00;100446.59;;;10.83;100.00
9695;BME280;4690;52.422;13.486;2024-03-02T08:16:26;100453.38;;;10.81;99.53
9695;BME280;4690;52.422;13.486;2024-03-02T08:18:52;100449.09;;;10.85;99.68
9695;BME280;4690;52.422;13.486;2024-03-02T08:21:18;100453.25;;;10.75;99.70
9695;BME280;4690;52.422;13.486;2024-03-02T08:23:44;100458.19;;;10.55;100.00
9695;BME280;4690;52.422;13.486;2024-03-02T08:26:11;100458.69;;;10.64;99.92
9695;BME280;4690;52.422;13.486;2024-03-02T08:28:37;100465.88;;;10.65;100.00
9695;BME280;4690;52.422;13.486;2024-03-02T08:31:04;100468.72;;;10.70;99.70
9695;BME280;4690;52.422;13.486;2024-03-02T08:33:30;100468.38;;;10.78;99.46
9695;BME280;4690;52.422;13.486;2024-03-02T08:35:56;100468.34;;;10.66;99.13
9695;BME280;4690;52.422;13.486;2024-03-02T08:38:22;100465.53;;;10.73;99.33
9695;BME280;4690;52.422;13.486;2024-03-02T08:40:50;100458.28;;;10.79;98.85
9695;BME280;4690;52.422;13.486;2024-03-02T08:43:17;100463.50;;;10.80;98.20
9695;BME280;4690;52.422;13.486;2024-03-02T08:45:43;100467.22;;;10.86;97.49
9695;BME280;4690;52.422;13.486;2024-03-02T08:48:09;100464.69;;;10.72;97.86
9695;BME280;4690;52.422;13.486;2024-03-02T08:50:36;100468.63;;;10.76;97.50
9695;BME280;4690;52.422;13.486;2024-03-02T08:53:05;100470.31;;;10.89;96.61
9695;BME280;4690;52.422;13.486;2024-03-02T08:55:31;100462.13;;;11.01;96.58
9695;BME280;4690;52.422;13.486;2024-03-02T08:57:57;100469.81;;;10.81;97.20
9695;BME280;4690;52.422;13.486;2024-03-02T09:00:23;100473.66;;;11.03;96.98
9695;BME280;4690;52.422;13.486;2024-03-02T09:02:50;100472.28;;;11.24;95.50
9695;BME280;4690;52.422;13.486;2024-03-02T09:05:15;100474.06;;;11.30;94.50
9695;BME280;4690;52.422;13.486;2024-03-02T09:07:41;100478.59;;;11.36;93.97
9695;BME280;4690;52.422;13.486;2024-03-02T09:10:08;100471.66;;;11.45;92.73
9695;BME280;4690;52.422;13.486;2024-03-02T09:12:35;100482.91;;;11.32;92.08
9695;BME280;4690;52.422;13.486;2024-03-02T09:15:02;100484.19;;;11.30;92.77
9695;BME280;4690;52.422;13.486;2024-03-02T09:17:29;100494.22;;;11.36;92.04
9695;BME280;4690;52.422;13.486;2024-03-02T09:19:55;100486.59;;;11.38;91.70
9695;BME280;4690;52.422;13.486;2024-03-02T09:22:21;100483.13;;;11.19;91.34
9695;BME280;4690;52.422;13.486;2024-03-02T09:24:47;100478.25;;;11.21;92.02
9695;BME280;4690;52.422;13.486;2024-03-02T09:27:13;100485.03;;;11.30;92.07
9695;BME280;4690;52.422;13.486;2024-03-02T09:29:38;100484.06;;;11.13;92.33
9695;BME280;4690;52.422;13.486;2024-03-02T09:32:05;100481.81;;;11.21;92.43
9695;BME280;4690;52.422;13.486;2024-03-02T09:34:32;100493.69;;;11.04;92.43
9695;BME280;4690;52.422;13.486;2024-03-02T09:36:58;100486.69;;;11.08;92.62
9695;BME280;4690;52.422;13.486;2024-03-02T09:39:24;100485.03;;;11.18;92.93
9695;BME280;4690;52.422;13.486;2024-03-02T09:41:53;100480.38;;;11.31;91.09
9695;BME280;4690;52.422;13.486;2024-03-02T09:44:20;100480.84;;;11.28;91.18
9695;BME280;4690;52.422;13.486;2024-03-02T09:46:49;100480.34;;;11.54;90.89
9695;BME280;4690;52.422;13.486;2024-03-02T09:49:15;100484.88;;;11.84;89.70
9695;BME280;4690;52.422;13.486;2024-03-02T09:51:48;100483.31;;;11.88;87.63
9695;BME280;4690;52.422;13.486;2024-03-02T09:54:16;100492.06;;;11.61;87.88
9695;BME280;4690;52.422;13.486;2024-03-02T09:56:42;100487.63;;;11.96;87.09
9695;BME280;4690;52.422;13.486;2024-03-02T09:59:08;100482.69;;;12.38;85.34
9695;BME280;4690;52.422;13.486;2024-03-02T10:01:34;100486.97;;;12.46;84.71
9695;BME280;4690;52.422;13.486;2024-03-02T10:04:00;100491.09;;;12.31;84.51
9695;BME280;4690;52.422;13.486;2024-03-02T10:06:28;100492.31;;;12.81;83.99
9695;BME280;4690;52.422;13.486;2024-03-02T10:08:55;100499.88;;;12.91;82.69
9695;BME280;4690;52.422;13.486;2024-03-02T10:11:33;100499.47;;;12.82;81.84
9695;BME280;4690;52.422;13.486;2024-03-02T10:14:10;100496.28;;;12.73;80.60
9695;BME280;4690;52.422;13.486;2024-03-02T10:16:42;100495.25;;;12.63;81.76
9695;BME280;4690;52.422;13.486;2024-03-02T10:19:24;100495.78;;;12.76;81.70
9695;BME280;4690;52.422;13.486;2024-03-02T10:21:55;100492.97;;;13.22;79.13
9695;BME280;4690;52.422;13.486;2024-03-02T10:24:24;100491.75;;;13.47;78.57
9695;BME280;4690;52.422;13.486;2024-03-02T10:26:51;100483.72;;;13.45;77.19
9695;BME280;4690;52.422;13.486;2024-03-02T10:29:18;100484.56;;;13.45;77.68
9695;BME280;4690;52.422;13.486;2024-03-02T10:31:46;100487.56;;;13.10;77.32
9695;BME280;4690;52.422;13.486;2024-03-02T10:34:13;100486.88;;;13.03;78.08
9695;BME280;4690;52.422;13.486;2024-03-02T10:36:43;100486.16;;;13.24;76.64
9695;BME280;4690;52.422;13.486;2024-03-02T10:39:10;100483.81;;;13.50;76.41
9695;BME280;4690;52.422;13.486;2024-03-02T10:41:38;100487.38;;;13.17;75.65
9695;BME280;4690;52.422;13.486;2024-03-02T10:44:07;100484.53;;;12.78;77.21
9695;BME280;4690;52.422;13.486;2024-03-02T10:46:36;100487.72;;;12.87;77.81
9695;BME280;4690;52.422;13.486;2024-03-02T10:49:04;100484.97;;;13.20;76.84
9695;BME280;4690;52.422;13.486;2024-03-02T10:51:33;100478.13;;;13.40;76.27
9695;BME280;4690;52.422;13.486;2024-03-02T10:54:00;100475.38;;;13.40;75.33
9695;BME280;4690;52.422;13.486;2024-03-02T10:56:38;100478.28;;;13.67;74.58
9695;BME280;4690;52.422;13.486;2024-03-02T11:01:58;100481.63;;;13.69;72.32
9695;BME280;4690;52.422;13.486;2024-03-02T11:04:28;100482.47;;;13.92;72.11
9695;BME280;4690;52.422;13.486;2024-03-02T11:07:10;100475.09;;;13.75;71.67
9695;BME280;4690;52.422;13.486;2024-03-02T11:10:08;100486.41;;;13.79;73.38
9695;BME280;4690;52.422;13.486;2024-03-02T11:12:53;100482.59;;;13.80;72.58
9695;BME280;4690;52.422;13.486;2024-03-02T11:15:24;100481.41;;;13.76;71.99
9695;BME280;4690;52.422;13.486;2024-03-02T11:17:52;100472.34;;;13.97;71.38
9695;BME280;4690;52.422;13.486;2024-03-02T11:20:19;100471.25;;;14.20;70.41
9695;BME280;4690;52.422;13.486;2024-03-02T11:22:46;100464.22;;;13.85;71.12
9695;BME280;4690;52.422;13.486;2024-03-02T11:25:26;100469.69;;;14.07;71.01
9695;BME280;4690;52.422;13.486;2024-03-02T11:33:03;100484.13;;;14.91;70.05
9695;BME280;4690;52.422;13.486;2024-03-02T11:38:02;100477.22;;;15.20;66.33
9695;BME280;4690;52.422;13.486;2024-03-02T11:40:29;100471.94;;;15.19;66.47
9695;BME280;4690;52.422;13.486;2024-03-02T11:42:59;100467.88;;;14.94;66.75
9695;BME280;4690;52.422;13.486;2024-03-02T11:45:28;100471.84;;;15.04;67.29
9695;BME280;4690;52.422;13.486;2024-03-02T11:47:57;100474.84;;;15.39;66.22
9695;BME280;4690;52.422;13.486;2024-03-02T11:50:50;100474.09;;;15.49;65.43
9695;BME280;4690;52.422;13.486;2024-03-02T11:53:18;100468.00;;;15.47;65.06
9695;BME280;4690;52.422;13.486;2024-03-02T11:55:45;100473.53;;;15.47;64.65
9695;BME280;4690;52.422;13.486;2024-03-02T11:58:12;100477.19;;;15.58;64.14
9695;BME280;4690;52.422;13.486;2024-03-02T12:00:39;100477.72;;;15.55;63.52
9695;BME280;4690;52.422;13.486;2024-03-02T12:03:07;100472.25;;;15.60;62.67
9695;BME280;4690;52.422;13.486;2024-03-02T12:05:35;100472.69;;;15.46;65.11
9695;BME280;4690;52.422;13.486;2024-03-02T12:08:04;100477.22;;;16.16;63.87
9695;BME280;4690;52.422;13.486;2024-03-02T12:10:31;100472.97;;;15.93;62.43
9695;BME280;4690;52.422;13.486;2024-03-02T12:12:58;100465.31;;;16.10;60.85
9695;BME280;4690;52.422;13.486;2024-03-02T12:15:35;100467.69;;;16.74;60.24
9695;BME280;4690;52.422;13.486;2024-03-02T12:18:06;100464.06;;;16.48;58.73
9695;BME280;4690;52.422;13.486;2024-03-02T12:20:33;100466.13;;;16.10;60.11
9695;BME280;4690;52.422;13.486;2024-03-02T12:23:03;100458.00;;;16.67;59.23
9695;BME280;4690;52.422;13.486;2024-03-02T12:25:31;100455.53;;;17.42;56.99
9695;BME280;4690;52.422;13.486;2024-03-02T12:28:00;100452.13;;;17.70;55.62
9695;BME280;4690;52.422;13.486;2024-03-02T12:30:31;100455.00;;;17.30;57.33
9695;BME280;4690;52.422;13.486;2024-03-02T12:33:00;100457.78;;;17.09;57.13
9695;BME280;4690;52.422;13.486;2024-03-02T12:35:26;100448.91;;;17.38;56.09
9695;BME280;4690;52.422;13.486;2024-03-02T12:37:54;100446.94;;;17.38;55.89
9695;BME280;4690;52.422;13.486;2024-03-02T12:40:21;100453.63;;;17.37;55.73
9695;BME280;4690;52.422;13.486;2024-03-02T12:42:49;100454.44;;;17.22;55.86
9695;BME280;4690;52.422;13.486;2024-03-02T12:45:16;100456.41;;;16.81;57.56
9695;BME280;4690;52.422;13.486;2024-03-02T12:47:49;100461.00;;;16.50;59.48
9695;BME280;4690;52.422;13.486;2024-03-02T12:50:15;100456.63;;;16.64;60.13
9695;BME280;4690;52.422;13.486;2024-03-02T12:52:41;100455.53;;;16.75;59.11
9695;BME280;4690;52.422;13.486;2024-03-02T12:55:07;100451.38;;;16.78;58.12
9695;BME280;4690;52.422;13.486;2024-03-02T12:57:34;100454.63;;;16.39;59.12
9695;BME280;4690;52.422;13.486;2024-03-02T13:00:06;100459.34;;;16.49;59.53
9695;BME280;4690;52.422;13.486;2024-03-02T13:02:40;100450.97;;;16.18;59.59
9695;BME280;4690;52.422;13.486;2024-03-02T13:05:07;100457.97;;;16.51;59.93
9695;BME280;4690;52.422;13.486;2024-03-02T13:07:38;100451.63;;;16.61;58.77
9695;BME280;4690;52.422;13.486;2024-03-02T13:10:05;100453.38;;;16.98;57.50
9695;BME280;4690;52.422;13.486;2024-03-02T13:12:32;100446.09;;;16.71;57.56
9695;BME280;4690;52.422;13.486;2024-03-02T13:14:59;100448.34;;;16.79;56.75
9695;BME280;4690;52.422;13.486;2024-03-02T13:17:24;100449.94;;;16.55;58.44
9695;BME280;4690;52.422;13.486;2024-03-02T13:19:57;100441.09;;;17.60;56.96
9695;BME280;4690;52.422;13.486;2024-03-02T13:22:24;100433.97;;;18.14;54.00